Weather History for KBIE - January, 2000

Change the Weather History Date:

Saturday, January 8, 2000

  Actual Average Record
Temperature  
Mean Temperature 38 °F -  
Max Temperature 51 °F 27 °F 68 °F (2003)
Min Temperature 26 °F 8 °F -10 °F (1970)
Degree Days  
Heating Degree Days 26    
Moisture  
Dew Point 27 °F    
Average Humidity 68    
Maximum Humidity 93    
Minimum Humidity 38    
Precipitation  
Precipitation 0.00 in - - ()
Sea Level Pressure  
Sea Level Pressure 29.88 in    
Wind  
Wind Speed 11 mph (SSW)    
Max Wind Speed 16 mph    
Max Gust Speed 22 mph    
Visibility 9 miles    
Events      
Averages and records for this station are not official NWS values.
T = Trace of Precipitation, MM = Missing Value Source: NWS Daily Summary

Daily Weather History Graph

Daily Weather History Graph

Search for Another Location

Airport or City:

Trip Planner

Search our weather history database for the weather conditions in past years. The results will help you decide how hot, cold, wet, or windy it might be!

Date:

Astronomy

Jan. 08, 2000 Rise Set
Actual Time 7:49 AM CST 5:17 PM CST
Civil Twilight 7:19 AM CST 5:47 PM CST
Nautical Twilight 6:45 AM CST 6:21 PM CST
Astronomical Twilight 6:12 AM CST 6:54 PM CST
Moon 9:06 AM CST (1/8) 7:15 PM CST (1/8)
Length of Visible Light 10h 28m
Length of Day
9h 27m
Waxing Crescent, 4% of the Moon is Illuminated
Jan 8
Waxing Crescent
Jan 14
First Quarter
Jan 20
Full
Jan 28
Last Quarter
Feb 5
New

Hourly Weather History & Observations

Time (CST) Temp. Windchill Dew Point Humidity Pressure Visibility Wind Dir Wind Speed Gust Speed Precip Events Conditions
12:33 AM 37.4 °F 28.2 °F 24.8 °F 60% 30.08 in 10.0 mi SSW 16.1 mph 21.9 mph N/A   Clear
12:53 AM 35.6 °F 27.1 °F 24.8 °F 65% 30.07 in 10.0 mi SSW 12.7 mph - N/A   Clear
1:10 AM 35.6 °F 26.2 °F 24.8 °F 65% 30.07 in 10.0 mi SSW 15.0 mph - N/A   Clear
1:32 AM 35.6 °F 27.1 °F 24.8 °F 65% 30.06 in 10.0 mi SSW 12.7 mph - N/A   Clear
1:50 AM 33.8 °F 25.3 °F 24.8 °F 70% 30.06 in 10.0 mi SSW 11.5 mph - N/A   Clear
2:30 AM 32.0 °F 24.8 °F 23.0 °F 69% 30.05 in 10.0 mi SSW 8.1 mph - N/A   Clear
2:54 AM 32.0 °F 23.6 °F 24.8 °F 75% 30.04 in 10.0 mi South 10.4 mph - N/A   Clear
3:11 AM 32.0 °F 24.8 °F 24.8 °F 75% 30.04 in 10.0 mi South 8.1 mph - N/A   Clear
3:51 AM 30.2 °F 24.3 °F 21.2 °F 69% 30.02 in 10.0 mi South 5.8 mph - N/A   Clear
4:10 AM 30.2 °F 23.4 °F 24.8 °F 80% 30.01 in 10.0 mi South 6.9 mph - N/A   Clear
4:52 AM 30.2 °F 21.9 °F 24.8 °F 80% 29.99 in 10.0 mi South 9.2 mph - N/A   Clear
5:10 AM 30.2 °F 21.3 °F 23.0 °F 75% 29.99 in 10.0 mi South 10.4 mph - N/A   Clear
5:33 AM 30.2 °F 21.9 °F 24.8 °F 80% 29.98 in 10.0 mi South 9.2 mph - N/A   Clear
5:51 AM 30.2 °F 21.3 °F 23.0 °F 75% 29.98 in 10.0 mi South 10.4 mph - N/A   Clear
6:33 AM 30.2 °F 21.3 °F 23.0 °F 75% 29.97 in 10.0 mi SSW 10.4 mph - N/A   Clear
6:50 AM 30.2 °F 20.8 °F 23.0 °F 75% 29.96 in 10.0 mi SW 11.5 mph - N/A   Clear
7:11 AM 28.4 °F 22.2 °F 23.0 °F 80% 29.96 in 10.0 mi SSW 5.8 mph - N/A   Clear
7:50 AM 28.4 °F 19.7 °F 23.0 °F 80% 29.96 in 10.0 mi SSW 9.2 mph - N/A   Clear
8:10 AM 26.6 °F 17.5 °F 19.4 °F 74% 29.96 in 10.0 mi South 9.2 mph - N/A   Clear
8:51 AM 30.2 °F 23.4 °F 24.8 °F 80% 29.96 in 10.0 mi South 6.9 mph - N/A   Clear
9:11 AM 30.2 °F 21.9 °F 26.6 °F 86% 29.96 in 10.0 mi SSW 9.2 mph - N/A   Clear
9:30 AM 33.8 °F 24.3 °F 26.6 °F 75% 29.95 in 10.0 mi SSW 13.8 mph - N/A   Clear
9:54 AM 35.6 °F 27.1 °F 26.6 °F 70% 29.95 in 10.0 mi SW 12.7 mph - N/A   Clear
10:11 AM 37.4 °F 30.3 °F 28.4 °F 70% 29.95 in 10.0 mi SW 10.4 mph - N/A   Clear
10:32 AM 37.4 °F 29.8 °F 28.4 °F 70% 29.95 in 10.0 mi SSW 11.5 mph - N/A   Clear
10:56 AM 39.2 °F 32.0 °F 28.4 °F 65% 29.94 in 10.0 mi SW 11.5 mph - N/A   Clear
11:14 AM 42.8 °F 36.2 °F 26.6 °F 53% 29.92 in 10.0 mi SW 12.7 mph - N/A   Clear
11:30 AM 42.8 °F 35.1 °F 26.6 °F 53% 29.91 in 10.0 mi SSW 16.1 mph 20.7 mph N/A   Clear
12:12 PM 46.4 °F 40.4 °F 24.8 °F 43% 29.88 in 10.0 mi SSW 13.8 mph - N/A   Clear
12:30 PM 46.4 °F 40.1 °F 24.8 °F 43% 29.88 in 10.0 mi SW 15.0 mph - N/A   Clear
12:52 PM 46.4 °F 39.8 °F 24.8 °F 43% 29.86 in 10.0 mi SSW 16.1 mph - N/A   Clear
1:10 PM 48.2 °F - 26.6 °F 43% 29.85 in 10.0 mi SSW 13.8 mph - N/A   Clear
1:32 PM 48.2 °F - 26.6 °F 43% 29.84 in 10.0 mi SSW 11.5 mph - N/A   Clear
1:54 PM 50.0 °F - 26.6 °F 40% 29.82 in 10.0 mi SW 13.8 mph - N/A   Clear
2:10 PM 51.8 °F - 26.6 °F 38% 29.81 in 10.0 mi SSW 13.8 mph - N/A   Clear
2:30 PM 51.8 °F - 26.6 °F 38% 29.80 in 10.0 mi SW 12.7 mph 16.1 mph N/A   Clear
2:50 PM 51.8 °F - 26.6 °F 38% 29.79 in 10.0 mi SSW 10.4 mph - N/A   Clear
3:11 PM 51.8 °F - 26.6 °F 38% 29.79 in 10.0 mi SSW 10.4 mph - N/A   Clear
3:50 PM 51.8 °F - 28.4 °F 41% 29.79 in 10.0 mi South 13.8 mph - N/A   Clear
4:10 PM 48.2 °F - 28.4 °F 46% 29.78 in 10.0 mi South 12.7 mph - N/A   Clear
4:29 PM 46.4 °F 41.9 °F 28.4 °F 50% 29.77 in 10.0 mi South 9.2 mph - N/A   Clear
5:11 PM 44.6 °F 38.8 °F 30.2 °F 57% 29.78 in 10.0 mi South 11.5 mph 16.1 mph N/A   Clear
5:34 PM 42.8 °F 36.6 °F 30.2 °F 61% 29.77 in 10.0 mi SSE 11.5 mph - N/A   Clear
5:49 PM 41.0 °F 33.9 °F 32.0 °F 70% 29.77 in 10.0 mi South 12.7 mph - N/A   Clear
6:14 PM 39.2 °F 31.6 °F 30.2 °F 70% 29.77 in 10.0 mi South 12.7 mph - N/A   Clear
6:29 PM 39.2 °F 31.6 °F 30.2 °F 70% 29.77 in 10.0 mi South 12.7 mph - N/A   Clear
6:51 PM 37.4 °F 29.8 °F 30.2 °F 75% 29.77 in 10.0 mi South 11.5 mph - N/A   Clear
7:32 PM 37.4 °F 29.8 °F 30.2 °F 75% 29.76 in 10.0 mi South 11.5 mph - N/A   Clear
7:49 PM 37.4 °F 30.3 °F 32.0 °F 81% 29.76 in 10.0 mi South 10.4 mph - N/A   Clear
8:12 PM 35.6 °F 28.6 °F 30.2 °F 81% 29.75 in 10.0 mi South 9.2 mph - N/A   Clear
8:29 PM 35.6 °F 29.2 °F 30.2 °F 81% 29.75 in 10.0 mi South 8.1 mph - N/A   Clear
9:10 PM 33.8 °F 28.6 °F 28.4 °F 81% 29.75 in 10.0 mi South 5.8 mph - N/A   Clear
9:29 PM 32.0 °F 27.5 °F 28.4 °F 87% 29.75 in 7.0 mi South 4.6 mph - N/A   Clear
9:51 PM 30.2 °F 23.4 °F 26.6 °F 86% 29.75 in 5.0 mi South 6.9 mph - N/A   Clear
10:09 PM 32.0 °F 28.7 °F 28.4 °F 87% 29.75 in 7.0 mi South 3.5 mph - N/A   Clear
10:31 PM 30.2 °F 23.4 °F 26.6 °F 86% 29.74 in 5.0 mi South 6.9 mph - N/A   Scattered Clouds
10:49 PM 33.8 °F 27.7 °F 32.0 °F 93% 29.74 in 5.0 mi South 6.9 mph - N/A   Mostly Cloudy
11:12 PM 35.6 °F 29.2 °F 32.0 °F 87% 29.73 in 0.2 mi South 8.1 mph - N/A   Overcast
11:29 PM 37.4 °F 31.4 °F 33.8 °F 87% 29.74 in 0.2 mi SSW 8.1 mph - N/A   Overcast
11:51 PM 37.4 °F 32.1 °F 35.6 °F 93% 29.73 in 0.8 mi South 6.9 mph - N/A   Overcast